createdAt,value
2018-06-18T00:01:27.119Z,17.30
2018-06-18T00:03:57.028Z,17.40
2018-06-18T00:06:26.986Z,17.40
2018-06-18T00:08:57.247Z,17.30
2018-06-18T00:11:27.347Z,17.30
2018-06-18T00:13:57.271Z,17.20
2018-06-18T00:16:27.285Z,17.50
2018-06-18T00:18:57.210Z,17.50
2018-06-18T00:21:27.246Z,17.60
2018-06-18T00:23:57.463Z,17.70
2018-06-18T00:26:27.514Z,17.80
2018-06-18T00:28:57.567Z,17.70
2018-06-18T00:31:27.726Z,17.60
2018-06-18T00:33:57.905Z,17.60
2018-06-18T00:36:27.958Z,17.70
2018-06-18T00:38:57.932Z,17.60
2018-06-18T00:41:27.822Z,17.80
2018-06-18T00:43:57.824Z,17.80
2018-06-18T00:46:27.782Z,17.80
2018-06-18T00:48:57.763Z,17.70
2018-06-18T00:51:27.688Z,17.60
2018-06-18T00:53:58.155Z,17.70
2018-06-18T00:56:28.192Z,17.60
2018-06-18T00:58:58.305Z,17.50
2018-06-18T01:01:28.336Z,17.60
2018-06-18T01:03:58.239Z,17.60
2018-06-18T01:06:28.348Z,17.70
2018-06-18T01:08:58.276Z,17.40
2018-06-18T01:11:28.216Z,17.60
2018-06-18T01:13:58.132Z,17.50
2018-06-18T01:16:28.168Z,17.30
2018-06-18T01:18:58.146Z,17.40
2018-06-18T01:21:28.202Z,17.40
2018-06-18T01:24:13.586Z,17.50
2018-06-18T01:26:43.680Z,17.60
2018-06-18T01:29:13.707Z,17.60
2018-06-18T01:31:43.692Z,17.60
2018-06-18T01:34:20.624Z,17.50
2018-06-18T01:36:50.564Z,17.60
2018-06-18T01:39:20.504Z,17.60
2018-06-18T01:41:50.623Z,17.60
2018-06-18T01:44:20.566Z,17.60
2018-06-18T01:46:50.662Z,17.60
2018-06-18T01:49:20.778Z,17.60
2018-06-18T01:51:50.903Z,17.50
2018-06-18T01:54:20.965Z,17.60
2018-06-18T01:56:50.968Z,17.60
2018-06-18T01:59:20.930Z,17.50
2018-06-18T02:01:50.919Z,17.60
2018-06-18T02:04:20.971Z,17.50
2018-06-18T02:06:50.907Z,17.50
2018-06-18T02:09:20.934Z,17.40
2018-06-18T02:11:51.039Z,17.30
2018-06-18T02:14:21.084Z,17.30
2018-06-18T02:16:51.080Z,17.50
2018-06-18T02:19:21.052Z,17.40
2018-06-18T02:21:51.065Z,17.50
2018-06-18T02:24:21.031Z,17.40
2018-06-18T02:26:55.124Z,17.50
2018-06-18T02:29:30.130Z,17.50
2018-06-18T02:32:05.149Z,17.50
2018-06-18T02:34:40.173Z,17.30
2018-06-18T02:37:15.276Z,17.40
2018-06-18T02:39:50.296Z,17.50
2018-06-18T02:42:20.326Z,17.50
2018-06-18T02:44:50.331Z,17.50
2018-06-18T02:47:20.461Z,17.50
2018-06-18T02:49:50.457Z,17.40
2018-06-18T02:52:20.408Z,17.40
2018-06-18T02:54:50.340Z,17.20
2018-06-18T02:57:20.290Z,17.30
2018-06-18T02:59:50.252Z,17.40
2018-06-18T03:02:20.300Z,17.40
2018-06-18T03:04:50.282Z,17.40
2018-06-18T03:07:20.195Z,17.30
2018-06-18T03:09:50.144Z,17.30
2018-06-18T03:12:20.137Z,17.20
2018-06-18T03:14:50.136Z,17.30
2018-06-18T03:17:20.208Z,17.20
2018-06-18T03:19:55.161Z,17.40
2018-06-18T03:22:30.027Z,17.40
2018-06-18T03:25:05.159Z,17.40
2018-06-18T03:27:40.492Z,17.40
2018-06-18T03:30:10.519Z,17.30
2018-06-18T03:32:40.713Z,17.40
2018-06-18T03:35:10.696Z,17.40
2018-06-18T03:37:40.688Z,17.40
2018-06-18T03:40:10.802Z,17.40
2018-06-18T03:42:41.159Z,17.30
2018-06-18T03:45:17.903Z,17.40
2018-06-18T03:47:47.910Z,17.40
2018-06-18T03:50:18.060Z,17.30
2018-06-18T03:52:48.147Z,17.30
2018-06-18T03:55:23.628Z,17.40
2018-06-18T03:57:53.870Z,17.20
2018-06-18T04:00:24.427Z,17.30
2018-06-18T04:03:02.051Z,17.10
2018-06-18T04:05:37.163Z,17.10
2018-06-18T04:08:11.908Z,17.10
2018-06-18T04:10:46.835Z,17.20
2018-06-18T04:13:16.796Z,17.10
2018-06-18T04:15:46.761Z,17.10
2018-06-18T04:18:16.772Z,17.10
2018-06-18T04:20:49.469Z,17.30
2018-06-18T04:23:19.442Z,17.10
2018-06-18T04:25:49.539Z,16.90
2018-06-18T04:28:19.520Z,16.80
2018-06-18T04:30:49.581Z,16.80
2018-06-18T04:33:24.120Z,16.70
2018-06-18T04:35:54.132Z,16.90
2018-06-18T04:38:24.121Z,16.90
2018-06-18T04:40:54.168Z,17.10
2018-06-18T04:43:29.472Z,16.90
2018-06-18T04:46:04.468Z,17.10
2018-06-18T04:48:39.547Z,17.10
2018-06-18T04:51:09.530Z,17.20
2018-06-18T04:53:39.568Z,17.30
2018-06-18T04:56:10.599Z,17.20
2018-06-18T04:58:40.648Z,17.20
2018-06-18T05:01:21.554Z,17.00
2018-06-18T05:03:51.660Z,16.90
2018-06-18T05:06:21.732Z,17.10
2018-06-18T05:09:29.405Z,16.90
2018-06-18T05:11:59.372Z,17.10
2018-06-18T05:14:29.475Z,17.20
2018-06-18T05:16:59.594Z,17.40
2018-06-18T05:19:29.857Z,17.30
2018-06-18T05:22:00.001Z,17.40
2018-06-18T05:24:30.482Z,17.30
2018-06-18T05:27:01.346Z,17.40
2018-06-18T05:29:31.385Z,17.50
2018-06-18T05:32:01.482Z,17.60
2018-06-18T05:34:32.790Z,17.60
2018-06-18T05:37:07.796Z,17.70
2018-06-18T05:39:37.756Z,17.60
2018-06-18T05:42:07.955Z,17.60
2018-06-18T05:44:39.406Z,17.60
2018-06-18T05:47:09.373Z,17.70
2018-06-18T05:49:39.450Z,17.80
2018-06-18T05:52:09.288Z,17.80
2018-06-18T05:54:39.398Z,17.70
2018-06-18T05:57:09.447Z,17.80
2018-06-18T05:59:39.471Z,17.80
2018-06-18T06:02:09.663Z,17.90
2018-06-18T06:04:39.593Z,17.80
2018-06-18T06:07:09.515Z,17.90
2018-06-18T06:09:40.101Z,17.80
2018-06-18T06:12:10.850Z,17.70
2018-06-18T06:14:40.855Z,17.80
2018-06-18T06:17:10.855Z,17.90
2018-06-18T06:19:41.007Z,18.00
2018-06-18T06:22:11.041Z,18.00
2018-06-18T06:24:41.069Z,17.80
2018-06-18T06:27:11.019Z,17.90
2018-06-18T06:29:41.216Z,18.00
2018-06-18T06:32:11.232Z,18.00
2018-06-18T06:34:43.087Z,18.10
2018-06-18T06:37:13.708Z,18.10
2018-06-18T06:39:43.651Z,18.20
2018-06-18T06:42:17.583Z,18.20
2018-06-18T06:44:47.736Z,18.30
2018-06-18T06:47:18.267Z,18.40
2018-06-18T06:49:48.157Z,18.40
2018-06-18T06:52:18.019Z,18.50
2018-06-18T06:54:48.762Z,18.50
2018-06-18T06:57:20.339Z,18.50
2018-06-18T06:59:50.326Z,18.60
2018-06-18T07:02:20.297Z,18.50
2018-06-18T07:04:50.300Z,18.60
2018-06-18T07:07:21.007Z,18.70
2018-06-18T07:09:51.617Z,18.80
2018-06-18T07:12:21.712Z,18.70
2018-06-18T07:14:51.683Z,18.80
2018-06-18T07:17:21.639Z,18.80
2018-06-18T07:19:52.318Z,18.80
2018-06-18T07:22:22.380Z,18.90
2018-06-18T07:24:52.242Z,19.00
2018-06-18T07:27:22.821Z,18.80
2018-06-18T07:29:52.973Z,19.00
2018-06-18T07:32:23.835Z,18.80
2018-06-18T07:34:53.874Z,19.00
2018-06-18T07:37:24.351Z,18.80
2018-06-18T07:39:54.299Z,18.90
2018-06-18T07:42:24.163Z,19.00
2018-06-18T07:44:54.146Z,19.00
2018-06-18T07:47:24.971Z,19.00
2018-06-18T07:49:54.841Z,19.10
2018-06-18T07:52:24.755Z,19.20
2018-06-18T07:54:55.142Z,19.10
2018-06-18T07:57:25.171Z,19.20
2018-06-18T07:59:55.257Z,19.10
2018-06-18T08:02:26.205Z,19.30
2018-06-18T08:04:56.700Z,19.30
2018-06-18T08:07:27.299Z,19.40
2018-06-18T08:09:57.419Z,19.50
2018-06-18T08:12:27.327Z,19.40
2018-06-18T08:14:57.921Z,19.40
2018-06-18T08:17:28.026Z,19.60
2018-06-18T08:19:57.995Z,19.60
2018-06-18T08:22:27.981Z,19.80
2018-06-18T08:24:57.783Z,19.90
2018-06-18T08:27:27.805Z,19.90
2018-06-18T08:29:57.928Z,20.00
2018-06-18T08:32:27.966Z,20.20
2018-06-18T08:34:58.108Z,20.30
2018-06-18T08:37:29.788Z,20.20
2018-06-18T08:39:59.892Z,20.30
2018-06-18T08:42:29.875Z,20.30
2018-06-18T08:44:59.893Z,20.40
2018-06-18T08:47:29.925Z,20.40
2018-06-18T08:50:04.739Z,20.50
2018-06-18T08:52:40.201Z,20.30
2018-06-18T08:55:15.380Z,20.40
2018-06-18T08:57:51.135Z,20.20
2018-06-18T09:00:26.625Z,20.30
2018-06-18T09:03:01.668Z,20.50
2018-06-18T09:05:36.523Z,20.50
2018-06-18T09:08:12.535Z,20.50
2018-06-18T09:10:43.329Z,20.60
2018-06-18T09:13:13.431Z,20.60
2018-06-18T09:15:43.501Z,20.60
2018-06-18T09:18:14.612Z,20.80
2018-06-18T09:20:44.603Z,20.90
2018-06-18T09:23:15.934Z,21.00
2018-06-18T09:25:50.852Z,21.00
2018-06-18T09:28:21.511Z,21.20
2018-06-18T09:30:51.546Z,21.30
2018-06-18T09:33:22.343Z,21.40
2018-06-18T09:35:52.529Z,21.40
2018-06-18T09:38:23.720Z,21.40
2018-06-18T09:40:53.709Z,21.40
2018-06-18T09:43:23.717Z,21.30
2018-06-18T09:45:53.659Z,21.30
2018-06-18T09:48:27.623Z,21.20
2018-06-18T09:51:02.832Z,21.10
2018-06-18T09:53:38.109Z,21.20
2018-06-18T09:56:13.255Z,21.20
2018-06-18T09:58:48.237Z,21.10
2018-06-18T10:01:33.341Z,21.20
2018-06-18T10:04:05.036Z,21.20
2018-06-18T10:06:38.043Z,20.90
2018-06-18T10:09:10.707Z,21.20
2018-06-18T10:11:40.738Z,21.20
2018-06-18T10:14:12.177Z,21.30
2018-06-18T10:16:42.237Z,21.20
2018-06-18T10:19:12.082Z,21.30
2018-06-18T10:21:42.052Z,21.40
2018-06-18T10:24:12.034Z,21.30
2018-06-18T10:26:41.979Z,21.40
2018-06-18T10:29:12.172Z,21.50
2018-06-18T10:31:42.178Z,21.70
2018-06-18T10:34:17.083Z,22.10
2018-06-18T10:36:52.137Z,22.20
2018-06-18T10:39:27.307Z,22.60
2018-06-18T10:42:02.293Z,22.90
2018-06-18T10:44:32.260Z,23.20
2018-06-18T10:47:02.463Z,23.30
2018-06-18T10:49:32.530Z,23.50
2018-06-18T10:52:03.098Z,23.50
2018-06-18T10:54:33.081Z,23.60
2018-06-18T10:57:03.351Z,23.40
2018-06-18T10:59:33.559Z,23.40
2018-06-18T11:02:03.744Z,23.20
2018-06-18T11:04:33.735Z,23.20
2018-06-18T11:07:03.779Z,23.40
2018-06-18T11:09:33.732Z,23.10
2018-06-18T11:12:03.715Z,23.30
2018-06-18T11:14:33.780Z,23.10
2018-06-18T11:19:49.654Z,23.30
2018-06-18T11:25:34.828Z,23.00
2018-06-18T11:28:05.023Z,23.10
2018-06-18T11:30:35.303Z,23.00
2018-06-18T11:33:05.620Z,23.00
2018-06-18T11:35:35.583Z,23.10
2018-06-18T11:38:06.183Z,23.10
2018-06-18T11:43:46.532Z,23.20
2018-06-18T11:46:20.114Z,23.30
2018-06-18T11:48:51.227Z,23.30
2018-06-18T11:51:21.962Z,23.40
2018-06-18T11:57:04.219Z,23.40
2018-06-18T11:59:39.222Z,23.40
2018-06-18T12:02:14.249Z,23.20
2018-06-18T12:04:49.112Z,23.00
2018-06-18T12:07:25.000Z,22.80
2018-06-18T12:09:55.386Z,23.00
2018-06-18T12:12:25.659Z,23.00
2018-06-18T12:14:55.811Z,22.90
2018-06-18T12:17:25.643Z,22.90
2018-06-18T12:19:55.817Z,22.90
2018-06-18T12:22:25.806Z,23.00
2018-06-18T12:24:55.994Z,22.90
2018-06-18T12:27:29.824Z,23.00
2018-06-18T12:32:55.925Z,22.70
2018-06-18T12:35:26.393Z,22.80
2018-06-18T12:38:00.191Z,22.60
2018-06-18T12:40:33.273Z,22.70
2018-06-18T12:43:15.473Z,22.70
2018-06-18T12:45:54.959Z,22.70
2018-06-18T12:48:35.094Z,22.50
2018-06-18T12:51:13.310Z,22.50
2018-06-18T12:53:49.376Z,22.40
2018-06-18T12:56:29.061Z,22.30
2018-06-18T12:59:01.593Z,22.30
2018-06-18T13:01:34.863Z,22.10
2018-06-18T13:04:09.819Z,22.20
2018-06-18T13:06:39.739Z,22.00
2018-06-18T13:09:10.483Z,22.00
2018-06-18T13:11:51.634Z,21.90
2018-06-18T13:17:38.762Z,21.70
2018-06-18T13:20:09.283Z,21.60
2018-06-18T13:22:39.941Z,21.70
2018-06-18T13:25:18.643Z,21.70
2018-06-18T13:28:00.130Z,21.70
2018-06-18T13:30:30.344Z,21.70
2018-06-18T13:33:00.511Z,21.80
2018-06-18T13:35:30.893Z,22.10
2018-06-18T13:38:05.964Z,22.10
2018-06-18T13:40:41.946Z,22.20
2018-06-18T13:45:23.611Z,22.20
2018-06-18T13:47:58.788Z,22.20
2018-06-18T13:50:28.955Z,22.00
2018-06-18T13:52:59.065Z,21.80
2018-06-18T13:55:29.400Z,21.80
2018-06-18T13:58:00.097Z,21.80
2018-06-18T14:00:30.173Z,21.60
2018-06-18T14:03:00.603Z,21.50
2018-06-18T14:05:31.044Z,21.60
2018-06-18T14:08:01.138Z,21.50
2018-06-18T14:10:31.348Z,21.40
2018-06-18T14:13:02.021Z,21.20
2018-06-18T14:15:32.130Z,21.10
2018-06-18T14:18:02.808Z,21.10
2018-06-18T14:20:32.865Z,21.20
2018-06-18T14:23:02.879Z,20.90
2018-06-18T14:25:34.440Z,21.10
2018-06-18T14:28:04.584Z,21.20
2018-06-18T14:33:21.067Z,21.40
2018-06-18T14:35:56.035Z,21.20
2018-06-18T14:38:31.329Z,21.40
2018-06-18T14:41:02.045Z,21.40
2018-06-18T14:43:37.042Z,21.60
2018-06-18T14:46:31.693Z,21.70
2018-06-18T14:49:03.383Z,21.80
2018-06-18T14:51:33.472Z,21.80
2018-06-18T14:54:03.609Z,21.90
2018-06-18T14:56:36.794Z,21.90
2018-06-18T14:59:15.990Z,22.00
2018-06-18T15:01:46.163Z,22.00
2018-06-18T15:04:16.774Z,22.00
2018-06-18T15:06:47.009Z,22.00
2018-06-18T15:09:17.188Z,22.00
2018-06-18T15:11:47.135Z,21.80
2018-06-18T15:14:17.325Z,21.60
2018-06-18T15:16:47.541Z,21.50
2018-06-18T15:19:17.608Z,21.50
2018-06-18T15:21:53.644Z,21.40
2018-06-18T15:24:42.997Z,21.60
2018-06-18T15:27:12.939Z,21.70
2018-06-18T15:29:43.251Z,21.70
2018-06-18T15:32:32.011Z,21.60
2018-06-18T15:35:22.523Z,21.70
2018-06-18T15:37:52.945Z,21.90
2018-06-18T15:40:23.025Z,22.00
2018-06-18T15:42:53.354Z,22.00
2018-06-18T15:45:23.847Z,21.60
2018-06-18T15:47:54.323Z,21.90
2018-06-18T15:50:24.142Z,22.20
2018-06-18T15:52:54.313Z,22.20
2018-06-18T15:55:24.879Z,22.40
2018-06-18T15:58:02.387Z,22.30
2018-06-18T16:00:33.131Z,22.30
2018-06-18T16:03:03.780Z,22.10
2018-06-18T16:05:35.880Z,22.20
2018-06-18T16:08:07.600Z,22.20
2018-06-18T16:10:37.674Z,22.20
2018-06-18T16:13:08.987Z,22.00
2018-06-18T16:15:39.669Z,22.00
2018-06-18T16:18:09.587Z,22.00
2018-06-18T16:20:40.311Z,22.00
2018-06-18T16:23:10.390Z,22.00
2018-06-18T16:28:26.434Z,22.10
2018-06-18T16:31:14.077Z,22.20
2018-06-18T16:33:55.447Z,22.20
2018-06-18T16:39:35.196Z,22.10
2018-06-18T16:42:05.200Z,22.20
2018-06-18T16:44:35.328Z,22.00
2018-06-18T16:47:05.301Z,21.80
2018-06-18T16:49:35.115Z,21.80
2018-06-18T16:52:10.483Z,21.70
2018-06-18T16:54:42.383Z,21.70
2018-06-18T16:57:12.570Z,21.60
2018-06-18T16:59:42.990Z,21.40
2018-06-18T17:02:13.682Z,21.50
2018-06-18T17:04:44.382Z,21.40
2018-06-18T17:07:14.773Z,21.40
2018-06-18T17:09:44.716Z,21.30
2018-06-18T17:12:15.060Z,21.40
2018-06-18T17:14:45.848Z,21.40
2018-06-18T17:17:16.992Z,21.40
2018-06-18T17:19:47.154Z,21.30
2018-06-18T17:22:16.944Z,21.20
2018-06-18T17:24:48.055Z,21.20
2018-06-18T17:27:18.147Z,21.30
2018-06-18T17:29:48.400Z,21.40
2018-06-18T17:32:18.302Z,21.60
2018-06-18T17:34:48.308Z,21.50
2018-06-18T17:37:18.247Z,21.60
2018-06-18T17:39:48.263Z,21.50
2018-06-18T17:42:18.558Z,21.50
2018-06-18T17:44:48.474Z,21.50
2018-06-18T17:47:18.487Z,21.60
2018-06-18T17:49:49.542Z,21.60
2018-06-18T17:52:19.641Z,21.60
2018-06-18T17:54:49.567Z,21.60
2018-06-18T17:57:20.883Z,21.50
2018-06-18T17:59:50.842Z,21.60
2018-06-18T18:02:20.768Z,21.60
2018-06-18T18:04:50.787Z,21.60
2018-06-18T18:07:21.884Z,21.60
2018-06-18T18:09:51.943Z,21.50
2018-06-18T18:12:21.946Z,21.50
2018-06-18T18:14:51.967Z,21.60
2018-06-18T18:17:21.993Z,21.60
2018-06-18T18:19:52.854Z,21.60
2018-06-18T18:22:22.955Z,21.50
2018-06-18T18:24:52.775Z,21.60
2018-06-18T18:27:23.079Z,21.50
2018-06-18T18:29:53.134Z,21.50
2018-06-18T18:32:23.180Z,21.50
2018-06-18T18:34:53.280Z,21.50
2018-06-18T18:37:23.235Z,21.50
2018-06-18T18:39:54.112Z,21.40
2018-06-18T18:42:24.720Z,21.40
2018-06-18T18:44:54.838Z,21.40
2018-06-18T18:47:24.740Z,21.40
2018-06-18T18:49:54.771Z,21.40
2018-06-18T18:52:24.692Z,21.30
2018-06-18T18:56:08.332Z,21.30
2018-06-18T18:59:19.909Z,21.40
2018-06-18T19:01:49.903Z,21.20
2018-06-18T19:04:25.035Z,21.30
2018-06-18T19:06:55.132Z,21.30
2018-06-18T19:09:29.388Z,21.30
2018-06-18T19:11:59.342Z,21.20
2018-06-18T19:14:29.398Z,21.20
2018-06-18T19:16:59.477Z,21.10
2018-06-18T19:19:38.755Z,21.00
2018-06-18T19:22:08.560Z,21.10
2018-06-18T19:24:38.832Z,21.00
2018-06-18T19:27:08.855Z,21.00
2018-06-18T19:29:38.709Z,21.00
2018-06-18T19:32:08.500Z,20.80
2018-06-18T19:34:38.884Z,20.80
2018-06-18T19:37:09.258Z,20.80
2018-06-18T19:39:43.351Z,20.70
2018-06-18T19:42:14.008Z,20.70
2018-06-18T19:44:44.523Z,20.70
2018-06-18T19:47:28.099Z,20.60
2018-06-18T19:49:58.154Z,20.60
2018-06-18T19:52:28.066Z,20.60
2018-06-18T19:55:03.612Z,20.50
2018-06-18T19:57:33.731Z,20.40
2018-06-18T20:00:05.091Z,20.50
2018-06-18T20:02:35.083Z,20.30
2018-06-18T20:05:09.979Z,20.40
2018-06-18T20:07:52.284Z,20.40
2018-06-18T20:10:23.401Z,20.40
2018-06-18T20:12:53.815Z,20.30
2018-06-18T20:15:24.385Z,20.30
2018-06-18T20:17:54.386Z,20.40
2018-06-18T20:20:24.636Z,20.40
2018-06-18T20:22:54.563Z,20.40
2018-06-18T20:25:33.164Z,20.30
2018-06-18T20:28:03.121Z,20.30
2018-06-18T20:30:33.092Z,20.30
2018-06-18T20:33:03.062Z,20.30
2018-06-18T20:35:38.166Z,20.30
2018-06-18T20:38:08.215Z,20.20
2018-06-18T20:40:38.319Z,20.30
2018-06-18T20:43:08.752Z,20.20
2018-06-18T20:45:38.820Z,20.10
2018-06-18T20:48:08.950Z,20.00
2018-06-18T20:50:38.977Z,20.00
2018-06-18T20:53:09.034Z,20.00
2018-06-18T20:55:39.050Z,20.00
2018-06-18T20:58:09.199Z,20.20
2018-06-18T21:00:39.135Z,20.20
2018-06-18T21:03:09.031Z,20.20
2018-06-18T21:05:38.867Z,20.00
2018-06-18T21:08:08.920Z,20.00
2018-06-18T21:10:38.915Z,20.00
2018-06-18T21:13:11.216Z,20.10
2018-06-18T21:15:42.516Z,20.10
2018-06-18T21:18:12.504Z,20.00
2018-06-18T21:20:44.540Z,19.90
2018-06-18T21:23:14.555Z,20.00
2018-06-18T21:25:57.144Z,20.00
2018-06-18T21:28:27.232Z,19.80
2018-06-18T21:30:57.200Z,19.60
2018-06-18T21:33:27.186Z,19.70
2018-06-18T21:35:57.111Z,19.70
2018-06-18T21:38:30.119Z,19.80
2018-06-18T21:41:00.127Z,19.80
2018-06-18T21:43:30.257Z,19.70
2018-06-18T21:46:00.214Z,19.70
2018-06-18T21:48:31.930Z,19.70
2018-06-18T21:51:01.992Z,19.70
2018-06-18T21:53:31.938Z,19.70
2018-06-18T21:56:02.155Z,19.70
2018-06-18T21:58:32.096Z,19.80
2018-06-18T22:01:05.433Z,19.70
2018-06-18T22:03:48.248Z,19.60
2018-06-18T22:06:18.859Z,19.70
2018-06-18T22:08:48.956Z,19.50
2018-06-18T22:11:20.366Z,19.30
2018-06-18T22:13:50.323Z,19.50
2018-06-18T22:16:20.199Z,19.40
2018-06-18T22:18:50.187Z,19.30
2018-06-18T22:21:20.258Z,19.20
2018-06-18T22:23:51.151Z,19.40
2018-06-18T22:26:21.189Z,19.30
2018-06-18T22:28:51.142Z,19.20
2018-06-18T22:31:21.147Z,19.20
2018-06-18T22:33:51.063Z,19.10
2018-06-18T22:36:21.063Z,19.10
2018-06-18T22:38:53.770Z,19.20
2018-06-18T22:41:23.755Z,19.20
2018-06-18T22:43:53.871Z,19.20
2018-06-18T22:46:23.742Z,19.10
2018-06-18T22:48:53.552Z,19.10
2018-06-18T22:51:23.535Z,19.20
2018-06-18T22:53:53.491Z,19.00
2018-06-18T22:56:23.389Z,19.10
2018-06-18T22:58:53.203Z,19.10
2018-06-18T23:01:23.082Z,19.10
2018-06-18T23:03:53.056Z,19.10
2018-06-18T23:06:23.449Z,19.00
2018-06-18T23:08:53.394Z,18.80
2018-06-18T23:11:23.303Z,18.90
2018-06-18T23:13:53.231Z,18.90
2018-06-18T23:16:23.215Z,18.90
2018-06-18T23:18:53.139Z,18.90
2018-06-18T23:21:22.959Z,18.80
2018-06-18T23:23:52.850Z,18.90
2018-06-18T23:26:22.695Z,18.90
2018-06-18T23:28:56.901Z,18.80
2018-06-18T23:31:27.521Z,18.60
2018-06-18T23:33:58.296Z,18.70
2018-06-18T23:36:28.891Z,18.40
2018-06-18T23:38:58.925Z,18.40
2018-06-18T23:41:31.647Z,18.40
2018-06-18T23:44:03.227Z,18.20
2018-06-18T23:46:33.182Z,18.20
2018-06-18T23:49:03.042Z,18.40
2018-06-18T23:51:33.669Z,18.30
2018-06-18T23:54:04.516Z,18.10
2018-06-18T23:56:35.687Z,18.20
2018-06-18T23:59:05.874Z,18.00
